sensor_id;sensor_type;location;lat;lon;timestamp;P1;durP1;ratioP1;P2;durP2;ratioP2
5696;SDS011;2873;50.966;7.210;2022-07-05T00:01:04;3.00;;;2.80;;
5696;SDS011;2873;50.966;7.210;2022-07-05T00:03:30;5.15;;;2.60;;
5696;SDS011;2873;50.966;7.210;2022-07-05T00:05:56;2.50;;;2.30;;
5696;SDS011;2873;50.966;7.210;2022-07-05T00:08:22;3.20;;;2.40;;
5696;SDS011;2873;50.966;7.210;2022-07-05T00:10:47;2.20;;;2.00;;
5696;SDS011;2873;50.966;7.210;2022-07-05T00:13:13;4.25;;;2.28;;
5696;SDS011;2873;50.966;7.210;2022-07-05T00:15:39;3.88;;;2.50;;
5696;SDS011;2873;50.966;7.210;2022-07-05T00:18:05;3.87;;;2.70;;
5696;SDS011;2873;50.966;7.210;2022-07-05T00:20:31;5.90;;;2.85;;
5696;SDS011;2873;50.966;7.210;2022-07-05T00:22:57;5.85;;;2.80;;
5696;SDS011;2873;50.966;7.210;2022-07-05T00:25:22;3.77;;;3.10;;
5696;SDS011;2873;50.966;7.210;2022-07-05T00:27:48;3.57;;;2.60;;
5696;SDS011;2873;50.966;7.210;2022-07-05T00:30:13;3.38;;;2.60;;
5696;SDS011;2873;50.966;7.210;2022-07-05T00:32:39;3.10;;;2.90;;
5696;SDS011;2873;50.966;7.210;2022-07-05T00:35:05;2.95;;;2.70;;
5696;SDS011;2873;50.966;7.210;2022-07-05T00:37:32;3.72;;;2.85;;
5696;SDS011;2873;50.966;7.210;2022-07-05T00:39:57;6.47;;;2.95;;
5696;SDS011;2873;50.966;7.210;2022-07-05T00:42:23;6.77;;;2.97;;
5696;SDS011;2873;50.966;7.210;2022-07-05T00:44:49;3.90;;;2.70;;
5696;SDS011;2873;50.966;7.210;2022-07-05T00:47:14;3.00;;;2.90;;
5696;SDS011;2873;50.966;7.210;2022-07-05T00:49:40;5.60;;;3.43;;
5696;SDS011;2873;50.966;7.210;2022-07-05T00:52:07;3.40;;;3.10;;
5696;SDS011;2873;50.966;7.210;2022-07-05T00:54:34;3.45;;;3.15;;
5696;SDS011;2873;50.966;7.210;2022-07-05T00:57:01;3.28;;;3.08;;
5696;SDS011;2873;50.966;7.210;2022-07-05T00:59:28;3.72;;;3.35;;
5696;SDS011;2873;50.966;7.210;2022-07-05T01:01:54;3.53;;;3.25;;
5696;SDS011;2873;50.966;7.210;2022-07-05T01:04:20;3.90;;;2.83;;
5696;SDS011;2873;50.966;7.210;2022-07-05T01:06:47;3.50;;;3.10;;
5696;SDS011;2873;50.966;7.210;2022-07-05T01:09:14;5.30;;;3.40;;
5696;SDS011;2873;50.966;7.210;2022-07-05T01:11:42;4.38;;;3.20;;
5696;SDS011;2873;50.966;7.210;2022-07-05T01:14:09;2.90;;;2.70;;
5696;SDS011;2873;50.966;7.210;2022-07-05T01:16:46;7.25;;;3.47;;
5696;SDS011;2873;50.966;7.210;2022-07-05T01:19:13;5.68;;;3.40;;
5696;SDS011;2873;50.966;7.210;2022-07-05T01:21:41;4.57;;;3.40;;
5696;SDS011;2873;50.966;7.210;2022-07-05T01:24:09;5.13;;;3.53;;
5696;SDS011;2873;50.966;7.210;2022-07-05T01:26:36;4.60;;;3.72;;
5696;SDS011;2873;50.966;7.210;2022-07-05T01:29:02;3.92;;;3.33;;
5696;SDS011;2873;50.966;7.210;2022-07-05T01:31:28;4.40;;;3.10;;
5696;SDS011;2873;50.966;7.210;2022-07-05T01:33:54;6.97;;;3.42;;
5696;SDS011;2873;50.966;7.210;2022-07-05T01:36:20;3.60;;;3.30;;
5696;SDS011;2873;50.966;7.210;2022-07-05T01:38:46;4.80;;;3.42;;
5696;SDS011;2873;50.966;7.210;2022-07-05T01:41:12;3.25;;;3.05;;
5696;SDS011;2873;50.966;7.210;2022-07-05T01:43:37;5.13;;;3.75;;
5696;SDS011;2873;50.966;7.210;2022-07-05T01:46:04;4.95;;;3.40;;
5696;SDS011;2873;50.966;7.210;2022-07-05T01:48:31;8.77;;;3.60;;
5696;SDS011;2873;50.966;7.210;2022-07-05T01:51:04;3.92;;;3.58;;
5696;SDS011;2873;50.966;7.210;2022-07-05T01:53:31;3.97;;;3.58;;
5696;SDS011;2873;50.966;7.210;2022-07-05T01:55:58;3.63;;;3.30;;
5696;SDS011;2873;50.966;7.210;2022-07-05T01:58:25;3.38;;;3.20;;
5696;SDS011;2873;50.966;7.210;2022-07-05T02:00:51;4.40;;;3.30;;
5696;SDS011;2873;50.966;7.210;2022-07-05T02:03:18;3.83;;;3.40;;
5696;SDS011;2873;50.966;7.210;2022-07-05T02:05:44;4.85;;;3.42;;
5696;SDS011;2873;50.966;7.210;2022-07-05T02:08:11;3.88;;;3.58;;
5696;SDS011;2873;50.966;7.210;2022-07-05T02:10:38;4.03;;;3.60;;
5696;SDS011;2873;50.966;7.210;2022-07-05T02:13:04;3.15;;;3.00;;
5696;SDS011;2873;50.966;7.210;2022-07-05T02:15:31;3.60;;;3.20;;
5696;SDS011;2873;50.966;7.210;2022-07-05T02:17:58;3.90;;;3.50;;
5696;SDS011;2873;50.966;7.210;2022-07-05T02:20:24;4.03;;;3.30;;
5696;SDS011;2873;50.966;7.210;2022-07-05T02:22:50;3.93;;;3.53;;
5696;SDS011;2873;50.966;7.210;2022-07-05T02:25:15;4.00;;;3.60;;
5696;SDS011;2873;50.966;7.210;2022-07-05T02:27:41;5.43;;;3.30;;
5696;SDS011;2873;50.966;7.210;2022-07-05T02:30:07;9.87;;;3.90;;
5696;SDS011;2873;50.966;7.210;2022-07-05T02:32:33;3.60;;;3.30;;
5696;SDS011;2873;50.966;7.210;2022-07-05T02:34:58;4.43;;;3.40;;
5696;SDS011;2873;50.966;7.210;2022-07-05T02:37:24;4.15;;;3.60;;
5696;SDS011;2873;50.966;7.210;2022-07-05T02:39:49;3.93;;;3.50;;
5696;SDS011;2873;50.966;7.210;2022-07-05T02:42:15;4.25;;;3.95;;
5696;SDS011;2873;50.966;7.210;2022-07-05T02:44:40;4.70;;;3.78;;
5696;SDS011;2873;50.966;7.210;2022-07-05T02:47:06;7.00;;;3.90;;
5696;SDS011;2873;50.966;7.210;2022-07-05T02:49:31;4.10;;;3.80;;
5696;SDS011;2873;50.966;7.210;2022-07-05T02:51:57;6.45;;;3.90;;
5696;SDS011;2873;50.966;7.210;2022-07-05T02:54:22;4.40;;;4.10;;
5696;SDS011;2873;50.966;7.210;2022-07-05T02:56:48;5.10;;;3.77;;
5696;SDS011;2873;50.966;7.210;2022-07-05T02:59:13;3.92;;;3.60;;
5696;SDS011;2873;50.966;7.210;2022-07-05T03:01:39;3.90;;;3.70;;
5696;SDS011;2873;50.966;7.210;2022-07-05T03:04:05;5.35;;;3.90;;
5696;SDS011;2873;50.966;7.210;2022-07-05T03:06:31;5.70;;;3.70;;
5696;SDS011;2873;50.966;7.210;2022-07-05T03:08:57;4.88;;;3.70;;
5696;SDS011;2873;50.966;7.210;2022-07-05T03:11:23;4.03;;;3.60;;
5696;SDS011;2873;50.966;7.210;2022-07-05T03:13:49;4.20;;;3.80;;
5696;SDS011;2873;50.966;7.210;2022-07-05T03:16:14;4.77;;;3.70;;
5696;SDS011;2873;50.966;7.210;2022-07-05T03:18:40;5.73;;;3.77;;
5696;SDS011;2873;50.966;7.210;2022-07-05T03:21:05;4.50;;;4.10;;
5696;SDS011;2873;50.966;7.210;2022-07-05T03:23:31;3.90;;;3.60;;
5696;SDS011;2873;50.966;7.210;2022-07-05T03:25:56;6.80;;;3.80;;
5696;SDS011;2873;50.966;7.210;2022-07-05T03:28:22;4.25;;;3.90;;
5696;SDS011;2873;50.966;7.210;2022-07-05T03:30:48;4.77;;;3.70;;
5696;SDS011;2873;50.966;7.210;2022-07-05T03:33:13;4.78;;;3.92;;
5696;SDS011;2873;50.966;7.210;2022-07-05T03:35:39;5.50;;;4.17;;
5696;SDS011;2873;50.966;7.210;2022-07-05T03:38:05;4.35;;;3.72;;
5696;SDS011;2873;50.966;7.210;2022-07-05T03:40:30;4.93;;;3.80;;
5696;SDS011;2873;50.966;7.210;2022-07-05T03:42:56;4.57;;;4.20;;
5696;SDS011;2873;50.966;7.210;2022-07-05T03:45:21;4.70;;;4.30;;
5696;SDS011;2873;50.966;7.210;2022-07-05T03:47:47;4.70;;;4.30;;
5696;SDS011;2873;50.966;7.210;2022-07-05T03:50:12;5.13;;;4.20;;
5696;SDS011;2873;50.966;7.210;2022-07-05T03:52:38;5.10;;;3.80;;
5696;SDS011;2873;50.966;7.210;2022-07-05T03:55:04;4.70;;;4.20;;
5696;SDS011;2873;50.966;7.210;2022-07-05T03:57:29;3.80;;;3.60;;
5696;SDS011;2873;50.966;7.210;2022-07-05T03:59:55;4.97;;;3.70;;
5696;SDS011;2873;50.966;7.210;2022-07-05T04:02:21;7.00;;;3.90;;
5696;SDS011;2873;50.966;7.210;2022-07-05T04:04:47;4.57;;;3.95;;
5696;SDS011;2873;50.966;7.210;2022-07-05T04:07:12;5.03;;;4.00;;
5696;SDS011;2873;50.966;7.210;2022-07-05T04:09:38;6.27;;;4.20;;
5696;SDS011;2873;50.966;7.210;2022-07-05T04:12:04;4.00;;;3.70;;
5696;SDS011;2873;50.966;7.210;2022-07-05T04:14:30;6.82;;;3.95;;
5696;SDS011;2873;50.966;7.210;2022-07-05T04:16:55;7.10;;;4.10;;
5696;SDS011;2873;50.966;7.210;2022-07-05T04:19:21;4.50;;;4.10;;
5696;SDS011;2873;50.966;7.210;2022-07-05T04:21:47;4.30;;;4.07;;
5696;SDS011;2873;50.966;7.210;2022-07-05T04:24:12;5.05;;;4.55;;
5696;SDS011;2873;50.966;7.210;2022-07-05T04:26:38;6.00;;;4.07;;
5696;SDS011;2873;50.966;7.210;2022-07-05T04:29:03;4.20;;;3.80;;
5696;SDS011;2873;50.966;7.210;2022-07-05T04:31:29;5.50;;;4.00;;
5696;SDS011;2873;50.966;7.210;2022-07-05T04:33:54;4.53;;;4.10;;
5696;SDS011;2873;50.966;7.210;2022-07-05T04:36:20;5.22;;;4.55;;
5696;SDS011;2873;50.966;7.210;2022-07-05T04:38:46;5.07;;;4.57;;
5696;SDS011;2873;50.966;7.210;2022-07-05T04:41:11;5.40;;;4.20;;
5696;SDS011;2873;50.966;7.210;2022-07-05T04:43:37;5.38;;;4.30;;
5696;SDS011;2873;50.966;7.210;2022-07-05T04:46:02;4.87;;;4.30;;
5696;SDS011;2873;50.966;7.210;2022-07-05T04:48:28;5.07;;;4.10;;
5696;SDS011;2873;50.966;7.210;2022-07-05T04:50:53;8.05;;;4.07;;
5696;SDS011;2873;50.966;7.210;2022-07-05T04:53:19;4.17;;;3.70;;
5696;SDS011;2873;50.966;7.210;2022-07-05T04:55:45;14.57;;;3.88;;
5696;SDS011;2873;50.966;7.210;2022-07-05T04:58:10;7.32;;;3.95;;
5696;SDS011;2873;50.966;7.210;2022-07-05T05:00:36;6.38;;;4.25;;
5696;SDS011;2873;50.966;7.210;2022-07-05T05:03:02;5.20;;;3.70;;
5696;SDS011;2873;50.966;7.210;2022-07-05T05:05:27;4.30;;;3.90;;
5696;SDS011;2873;50.966;7.210;2022-07-05T05:07:53;3.50;;;3.20;;
5696;SDS011;2873;50.966;7.210;2022-07-05T05:10:19;4.53;;;3.77;;
5696;SDS011;2873;50.966;7.210;2022-07-05T05:12:44;9.10;;;4.05;;
5696;SDS011;2873;50.966;7.210;2022-07-05T05:15:10;4.57;;;4.20;;
5696;SDS011;2873;50.966;7.210;2022-07-05T05:17:36;5.25;;;4.25;;
5696;SDS011;2873;50.966;7.210;2022-07-05T05:20:13;4.15;;;3.70;;
5696;SDS011;2873;50.966;7.210;2022-07-05T05:22:40;5.45;;;3.78;;
5696;SDS011;2873;50.966;7.210;2022-07-05T05:25:07;4.85;;;4.20;;
5696;SDS011;2873;50.966;7.210;2022-07-05T05:27:33;4.50;;;3.88;;
5696;SDS011;2873;50.966;7.210;2022-07-05T05:29:59;7.32;;;4.03;;
5696;SDS011;2873;50.966;7.210;2022-07-05T05:32:25;4.22;;;3.83;;
5696;SDS011;2873;50.966;7.210;2022-07-05T05:34:50;3.50;;;3.20;;
5696;SDS011;2873;50.966;7.210;2022-07-05T05:37:16;4.43;;;3.40;;
5696;SDS011;2873;50.966;7.210;2022-07-05T05:39:41;4.00;;;3.10;;
5696;SDS011;2873;50.966;7.210;2022-07-05T05:42:07;3.90;;;3.40;;
5696;SDS011;2873;50.966;7.210;2022-07-05T05:44:33;4.53;;;3.60;;
5696;SDS011;2873;50.966;7.210;2022-07-05T05:46:58;5.40;;;3.90;;
5696;SDS011;2873;50.966;7.210;2022-07-05T05:49:24;3.70;;;3.30;;
5696;SDS011;2873;50.966;7.210;2022-07-05T05:51:50;7.45;;;3.67;;
5696;SDS011;2873;50.966;7.210;2022-07-05T05:54:15;3.50;;;3.20;;
5696;SDS011;2873;50.966;7.210;2022-07-05T05:56:41;4.30;;;3.55;;
5696;SDS011;2873;50.966;7.210;2022-07-05T05:59:06;3.20;;;2.90;;
5696;SDS011;2873;50.966;7.210;2022-07-05T06:01:33;4.90;;;3.50;;
5696;SDS011;2873;50.966;7.210;2022-07-05T06:03:59;4.55;;;3.40;;
5696;SDS011;2873;50.966;7.210;2022-07-05T06:06:24;5.20;;;3.50;;
5696;SDS011;2873;50.966;7.210;2022-07-05T06:08:50;6.63;;;3.60;;
5696;SDS011;2873;50.966;7.210;2022-07-05T06:11:15;7.53;;;3.40;;
5696;SDS011;2873;50.966;7.210;2022-07-05T06:13:41;4.93;;;3.20;;
5696;SDS011;2873;50.966;7.210;2022-07-05T06:16:07;3.38;;;3.08;;
5696;SDS011;2873;50.966;7.210;2022-07-05T06:18:33;3.90;;;3.60;;
5696;SDS011;2873;50.966;7.210;2022-07-05T06:20:59;4.63;;;3.20;;
5696;SDS011;2873;50.966;7.210;2022-07-05T06:23:24;3.50;;;3.20;;
5696;SDS011;2873;50.966;7.210;2022-07-05T06:25:50;4.80;;;3.20;;
5696;SDS011;2873;50.966;7.210;2022-07-05T06:28:16;3.67;;;3.00;;
5696;SDS011;2873;50.966;7.210;2022-07-05T06:30:41;3.50;;;3.20;;
5696;SDS011;2873;50.966;7.210;2022-07-05T06:33:08;8.27;;;3.40;;
5696;SDS011;2873;50.966;7.210;2022-07-05T06:35:33;3.70;;;3.40;;
5696;SDS011;2873;50.966;7.210;2022-07-05T06:38:00;5.85;;;3.70;;
5696;SDS011;2873;50.966;7.210;2022-07-05T06:40:28;8.23;;;3.30;;
5696;SDS011;2873;50.966;7.210;2022-07-05T06:42:56;4.10;;;3.03;;
5696;SDS011;2873;50.966;7.210;2022-07-05T06:45:24;5.10;;;3.20;;
5696;SDS011;2873;50.966;7.210;2022-07-05T06:47:57;4.20;;;3.80;;
5696;SDS011;2873;50.966;7.210;2022-07-05T06:50:34;4.45;;;3.10;;
5696;SDS011;2873;50.966;7.210;2022-07-05T06:53:02;4.60;;;2.90;;
5696;SDS011;2873;50.966;7.210;2022-07-05T06:55:27;3.78;;;3.03;;
5696;SDS011;2873;50.966;7.210;2022-07-05T06:58:11;5.20;;;4.50;;
5696;SDS011;2873;50.966;7.210;2022-07-05T07:00:37;4.07;;;3.13;;
5696;SDS011;2873;50.966;7.210;2022-07-05T07:03:04;4.47;;;2.90;;
5696;SDS011;2873;50.966;7.210;2022-07-05T07:05:29;4.40;;;3.00;;
5696;SDS011;2873;50.966;7.210;2022-07-05T07:07:55;6.18;;;2.78;;
5696;SDS011;2873;50.966;7.210;2022-07-05T07:10:39;3.30;;;2.90;;
5696;SDS011;2873;50.966;7.210;2022-07-05T07:13:05;5.40;;;2.60;;
5696;SDS011;2873;50.966;7.210;2022-07-05T07:15:30;3.75;;;2.60;;
5696;SDS011;2873;50.966;7.210;2022-07-05T07:17:56;2.70;;;2.50;;
5696;SDS011;2873;50.966;7.210;2022-07-05T07:20:22;5.90;;;3.60;;
5696;SDS011;2873;50.966;7.210;2022-07-05T07:22:48;2.60;;;2.50;;
5696;SDS011;2873;50.966;7.210;2022-07-05T07:25:14;3.03;;;2.40;;
5696;SDS011;2873;50.966;7.210;2022-07-05T07:27:50;8.93;;;3.08;;
5696;SDS011;2873;50.966;7.210;2022-07-05T07:30:17;3.20;;;3.00;;
5696;SDS011;2873;50.966;7.210;2022-07-05T07:32:45;3.20;;;2.30;;
5696;SDS011;2873;50.966;7.210;2022-07-05T07:35:11;2.90;;;2.60;;
5696;SDS011;2873;50.966;7.210;2022-07-05T07:37:36;3.00;;;2.80;;
5696;SDS011;2873;50.966;7.210;2022-07-05T07:40:03;3.58;;;2.88;;
5696;SDS011;2873;50.966;7.210;2022-07-05T07:42:29;2.80;;;2.60;;
5696;SDS011;2873;50.966;7.210;2022-07-05T07:44:55;4.10;;;2.60;;
5696;SDS011;2873;50.966;7.210;2022-07-05T07:47:21;3.40;;;2.30;;
5696;SDS011;2873;50.966;7.210;2022-07-05T07:49:46;3.05;;;2.85;;
5696;SDS011;2873;50.966;7.210;2022-07-05T07:52:12;3.80;;;2.57;;
5696;SDS011;2873;50.966;7.210;2022-07-05T07:54:38;3.42;;;2.40;;
5696;SDS011;2873;50.966;7.210;2022-07-05T07:57:03;2.85;;;2.60;;
5696;SDS011;2873;50.966;7.210;2022-07-05T07:59:33;6.25;;;2.50;;
5696;SDS011;2873;50.966;7.210;2022-07-05T08:01:59;3.30;;;3.00;;
5696;SDS011;2873;50.966;7.210;2022-07-05T08:04:25;4.45;;;2.60;;
5696;SDS011;2873;50.966;7.210;2022-07-05T08:06:51;3.40;;;2.70;;
5696;SDS011;2873;50.966;7.210;2022-07-05T08:09:16;3.60;;;2.70;;
5696;SDS011;2873;50.966;7.210;2022-07-05T08:11:42;5.63;;;3.40;;
5696;SDS011;2873;50.966;7.210;2022-07-05T08:14:08;2.90;;;2.70;;
5696;SDS011;2873;50.966;7.210;2022-07-05T08:16:34;5.97;;;2.40;;
5696;SDS011;2873;50.966;7.210;2022-07-05T08:18:59;2.90;;;2.30;;
5696;SDS011;2873;50.966;7.210;2022-07-05T08:21:43;2.60;;;2.50;;
5696;SDS011;2873;50.966;7.210;2022-07-05T08:24:10;4.80;;;2.78;;
5696;SDS011;2873;50.966;7.210;2022-07-05T08:26:37;9.85;;;2.65;;
5696;SDS011;2873;50.966;7.210;2022-07-05T08:29:03;2.72;;;2.30;;
5696;SDS011;2873;50.966;7.210;2022-07-05T08:31:32;2.10;;;1.90;;
5696;SDS011;2873;50.966;7.210;2022-07-05T08:33:59;4.28;;;2.30;;
5696;SDS011;2873;50.966;7.210;2022-07-05T08:36:25;3.30;;;1.80;;
5696;SDS011;2873;50.966;7.210;2022-07-05T08:38:51;5.10;;;1.70;;
5696;SDS011;2873;50.966;7.210;2022-07-05T08:41:18;2.80;;;1.60;;
5696;SDS011;2873;50.966;7.210;2022-07-05T08:43:48;1.90;;;1.80;;
5696;SDS011;2873;50.966;7.210;2022-07-05T08:46:15;2.60;;;1.90;;
5696;SDS011;2873;50.966;7.210;2022-07-05T08:48:42;2.00;;;1.80;;
5696;SDS011;2873;50.966;7.210;2022-07-05T08:51:13;8.48;;;1.98;;
5696;SDS011;2873;50.966;7.210;2022-07-05T08:53:42;1.88;;;1.60;;
5696;SDS011;2873;50.966;7.210;2022-07-05T08:56:08;6.22;;;1.75;;
5696;SDS011;2873;50.966;7.210;2022-07-05T08:58:39;2.77;;;1.50;;
5696;SDS011;2873;50.966;7.210;2022-07-05T09:01:07;1.95;;;1.85;;
5696;SDS011;2873;50.966;7.210;2022-07-05T09:03:37;3.70;;;1.90;;
5696;SDS011;2873;50.966;7.210;2022-07-05T09:06:08;4.00;;;2.00;;
5696;SDS011;2873;50.966;7.210;2022-07-05T09:08:38;3.10;;;1.60;;
5696;SDS011;2873;50.966;7.210;2022-07-05T09:11:09;2.20;;;1.97;;
5696;SDS011;2873;50.966;7.210;2022-07-05T09:13:41;4.40;;;1.98;;
5696;SDS011;2873;50.966;7.210;2022-07-05T09:16:09;3.13;;;2.20;;
5696;SDS011;2873;50.966;7.210;2022-07-05T09:18:44;4.30;;;2.20;;
5696;SDS011;2873;50.966;7.210;2022-07-05T09:23:40;2.67;;;2.20;;
5696;SDS011;2873;50.966;7.210;2022-07-05T09:26:07;2.70;;;2.00;;
5696;SDS011;2873;50.966;7.210;2022-07-05T09:28:33;8.57;;;1.70;;
5696;SDS011;2873;50.966;7.210;2022-07-05T09:30:58;2.45;;;1.70;;
5696;SDS011;2873;50.966;7.210;2022-07-05T09:33:24;2.00;;;1.90;;
5696;SDS011;2873;50.966;7.210;2022-07-05T09:35:53;1.85;;;1.75;;
5696;SDS011;2873;50.966;7.210;2022-07-05T09:38:22;1.97;;;1.87;;
5696;SDS011;2873;50.966;7.210;2022-07-05T09:40:56;2.15;;;1.90;;
5696;SDS011;2873;50.966;7.210;2022-07-05T09:43:23;2.75;;;2.00;;
5696;SDS011;2873;50.966;7.210;2022-07-05T09:48:22;2.80;;;1.80;;
5696;SDS011;2873;50.966;7.210;2022-07-05T09:50:51;2.65;;;2.40;;
5696;SDS011;2873;50.966;7.210;2022-07-05T09:53:17;3.38;;;2.60;;
5696;SDS011;2873;50.966;7.210;2022-07-05T09:55:59;4.00;;;2.50;;
5696;SDS011;2873;50.966;7.210;2022-07-05T09:58:26;4.63;;;2.70;;
5696;SDS011;2873;50.966;7.210;2022-07-05T10:00:51;2.92;;;2.72;;
5696;SDS011;2873;50.966;7.210;2022-07-05T10:03:17;3.10;;;2.90;;
5696;SDS011;2873;50.966;7.210;2022-07-05T10:05:42;4.90;;;2.80;;
5696;SDS011;2873;50.966;7.210;2022-07-05T10:08:08;4.23;;;3.03;;
5696;SDS011;2873;50.966;7.210;2022-07-05T10:10:35;5.63;;;2.55;;
5696;SDS011;2873;50.966;7.210;2022-07-05T10:13:03;2.90;;;2.70;;
5696;SDS011;2873;50.966;7.210;2022-07-05T10:15:34;3.75;;;2.97;;
5696;SDS011;2873;50.966;7.210;2022-07-05T10:18:05;6.30;;;3.08;;
5696;SDS011;2873;50.966;7.210;2022-07-05T10:20:38;5.00;;;3.20;;
5696;SDS011;2873;50.966;7.210;2022-07-05T10:23:07;3.13;;;2.90;;
5696;SDS011;2873;50.966;7.210;2022-07-05T10:25:36;3.40;;;2.70;;
5696;SDS011;2873;50.966;7.210;2022-07-05T10:28:03;4.35;;;2.60;;
5696;SDS011;2873;50.966;7.210;2022-07-05T10:30:30;2.40;;;2.20;;
5696;SDS011;2873;50.966;7.210;2022-07-05T10:32:57;2.30;;;2.10;;
5696;SDS011;2873;50.966;7.210;2022-07-05T10:35:24;3.75;;;2.60;;
5696;SDS011;2873;50.966;7.210;2022-07-05T10:37:50;3.67;;;3.00;;
5696;SDS011;2873;50.966;7.210;2022-07-05T10:40:16;3.30;;;3.10;;
5696;SDS011;2873;50.966;7.210;2022-07-05T10:42:45;3.08;;;2.58;;
5696;SDS011;2873;50.966;7.210;2022-07-05T10:48:42;3.35;;;3.05;;
5696;SDS011;2873;50.966;7.210;2022-07-05T10:58:21;4.38;;;2.88;;
5696;SDS011;2873;50.966;7.210;2022-07-05T11:00:47;3.92;;;2.60;;
5696;SDS011;2873;50.966;7.210;2022-07-05T11:03:37;4.60;;;2.80;;
5696;SDS011;2873;50.966;7.210;2022-07-05T11:06:18;9.73;;;3.47;;
5696;SDS011;2873;50.966;7.210;2022-07-05T11:11:42;5.00;;;4.50;;
5696;SDS011;2873;50.966;7.210;2022-07-05T11:16:45;3.88;;;3.00;;
5696;SDS011;2873;50.966;7.210;2022-07-05T11:19:16;4.20;;;3.30;;
5696;SDS011;2873;50.966;7.210;2022-07-05T11:22:00;7.50;;;6.32;;
5696;SDS011;2873;50.966;7.210;2022-07-05T11:24:26;4.13;;;3.83;;
5696;SDS011;2873;50.966;7.210;2022-07-05T11:26:53;5.03;;;4.63;;
5696;SDS011;2873;50.966;7.210;2022-07-05T11:32:21;2.83;;;2.60;;
5696;SDS011;2873;50.966;7.210;2022-07-05T11:34:49;2.90;;;2.60;;
5696;SDS011;2873;50.966;7.210;2022-07-05T11:42:36;2.63;;;2.42;;
5696;SDS011;2873;50.966;7.210;2022-07-05T11:45:08;3.53;;;2.63;;
5696;SDS011;2873;50.966;7.210;2022-07-05T11:47:34;2.50;;;2.40;;
5696;SDS011;2873;50.966;7.210;2022-07-05T11:50:00;2.60;;;2.40;;
5696;SDS011;2873;50.966;7.210;2022-07-05T11:54:53;3.30;;;2.00;;
5696;SDS011;2873;50.966;7.210;2022-07-05T11:57:19;5.18;;;2.20;;
5696;SDS011;2873;50.966;7.210;2022-07-05T11:59:46;4.28;;;2.20;;
5696;SDS011;2873;50.966;7.210;2022-07-05T12:02:15;2.20;;;2.00;;
5696;SDS011;2873;50.966;7.210;2022-07-05T12:04:46;5.00;;;2.45;;
5696;SDS011;2873;50.966;7.210;2022-07-05T12:07:23;2.47;;;2.20;;
5696;SDS011;2873;50.966;7.210;2022-07-05T12:09:56;4.18;;;2.63;;
5696;SDS011;2873;50.966;7.210;2022-07-05T12:12:41;4.10;;;2.20;;
5696;SDS011;2873;50.966;7.210;2022-07-05T12:15:19;4.50;;;2.50;;
5696;SDS011;2873;50.966;7.210;2022-07-05T12:17:49;3.88;;;2.33;;
5696;SDS011;2873;50.966;7.210;2022-07-05T12:20:22;2.42;;;2.30;;
5696;SDS011;2873;50.966;7.210;2022-07-05T12:22:50;2.42;;;2.22;;
5696;SDS011;2873;50.966;7.210;2022-07-05T12:25:20;4.53;;;2.20;;
5696;SDS011;2873;50.966;7.210;2022-07-05T12:27:47;2.40;;;2.20;;
5696;SDS011;2873;50.966;7.210;2022-07-05T12:30:14;3.60;;;2.10;;
5696;SDS011;2873;50.966;7.210;2022-07-05T12:33:00;3.05;;;2.10;;
5696;SDS011;2873;50.966;7.210;2022-07-05T12:38:06;1.90;;;1.80;;
5696;SDS011;2873;50.966;7.210;2022-07-05T12:40:32;2.17;;;1.98;;
5696;SDS011;2873;50.966;7.210;2022-07-05T12:43:06;2.80;;;2.30;;
5696;SDS011;2873;50.966;7.210;2022-07-05T12:45:35;2.30;;;1.90;;
5696;SDS011;2873;50.966;7.210;2022-07-05T12:48:03;2.80;;;1.80;;
5696;SDS011;2873;50.966;7.210;2022-07-05T12:50:44;2.00;;;1.52;;
5696;SDS011;2873;50.966;7.210;2022-07-05T12:53:10;4.78;;;2.00;;
5696;SDS011;2873;50.966;7.210;2022-07-05T12:55:59;1.70;;;1.60;;
5696;SDS011;2873;50.966;7.210;2022-07-05T12:58:53;2.40;;;1.83;;
5696;SDS011;2873;50.966;7.210;2022-07-05T13:01:21;2.03;;;1.50;;
5696;SDS011;2873;50.966;7.210;2022-07-05T13:04:09;2.23;;;1.57;;
5696;SDS011;2873;50.966;7.210;2022-07-05T13:09:11;3.65;;;1.50;;
5696;SDS011;2873;50.966;7.210;2022-07-05T13:11:38;2.85;;;1.60;;
5696;SDS011;2873;50.966;7.210;2022-07-05T13:14:04;1.90;;;1.30;;
5696;SDS011;2873;50.966;7.210;2022-07-05T13:16:30;2.10;;;1.50;;
5696;SDS011;2873;50.966;7.210;2022-07-05T13:19:14;3.75;;;1.50;;
5696;SDS011;2873;50.966;7.210;2022-07-05T13:21:39;1.63;;;1.30;;
5696;SDS011;2873;50.966;7.210;2022-07-05T13:24:05;2.97;;;1.50;;
5696;SDS011;2873;50.966;7.210;2022-07-05T13:26:31;1.40;;;1.25;;
5696;SDS011;2873;50.966;7.210;2022-07-05T13:28:57;4.40;;;1.10;;
5696;SDS011;2873;50.966;7.210;2022-07-05T13:31:22;1.50;;;1.40;;
5696;SDS011;2873;50.966;7.210;2022-07-05T13:33:48;3.23;;;1.40;;
5696;SDS011;2873;50.966;7.210;2022-07-05T13:36:13;3.10;;;1.40;;
5696;SDS011;2873;50.966;7.210;2022-07-05T13:38:39;3.97;;;1.80;;
5696;SDS011;2873;50.966;7.210;2022-07-05T13:41:05;1.90;;;1.70;;
5696;SDS011;2873;50.966;7.210;2022-07-05T13:43:30;3.13;;;1.50;;
5696;SDS011;2873;50.966;7.210;2022-07-05T13:45:56;1.50;;;1.40;;
5696;SDS011;2873;50.966;7.210;2022-07-05T13:48:21;2.30;;;1.40;;
5696;SDS011;2873;50.966;7.210;2022-07-05T13:50:47;2.10;;;1.52;;
5696;SDS011;2873;50.966;7.210;2022-07-05T13:53:12;3.90;;;1.40;;
5696;SDS011;2873;50.966;7.210;2022-07-05T13:55:38;1.63;;;1.53;;
5696;SDS011;2873;50.966;7.210;2022-07-05T13:58:03;1.97;;;1.57;;
5696;SDS011;2873;50.966;7.210;2022-07-05T14:00:29;2.13;;;1.37;;
5696;SDS011;2873;50.966;7.210;2022-07-05T14:02:55;4.20;;;1.80;;
5696;SDS011;2873;50.966;7.210;2022-07-05T14:05:20;4.13;;;1.53;;
5696;SDS011;2873;50.966;7.210;2022-07-05T14:07:49;1.70;;;1.60;;
5696;SDS011;2873;50.966;7.210;2022-07-05T14:10:15;3.72;;;1.65;;
5696;SDS011;2873;50.966;7.210;2022-07-05T14:12:41;3.17;;;1.47;;
5696;SDS011;2873;50.966;7.210;2022-07-05T14:15:06;6.90;;;2.00;;
5696;SDS011;2873;50.966;7.210;2022-07-05T14:17:33;3.40;;;1.60;;
5696;SDS011;2873;50.966;7.210;2022-07-05T14:19:58;1.87;;;1.50;;
5696;SDS011;2873;50.966;7.210;2022-07-05T14:22:24;3.00;;;1.70;;
5696;SDS011;2873;50.966;7.210;2022-07-05T14:24:49;1.90;;;1.63;;
5696;SDS011;2873;50.966;7.210;2022-07-05T14:27:15;1.90;;;1.60;;
5696;SDS011;2873;50.966;7.210;2022-07-05T14:29:41;4.30;;;1.87;;
5696;SDS011;2873;50.966;7.210;2022-07-05T14:32:06;2.33;;;1.60;;
5696;SDS011;2873;50.966;7.210;2022-07-05T14:34:32;4.40;;;1.60;;
5696;SDS011;2873;50.966;7.210;2022-07-05T14:36:58;4.37;;;1.73;;
5696;SDS011;2873;50.966;7.210;2022-07-05T14:39:24;1.60;;;1.50;;
5696;SDS011;2873;50.966;7.210;2022-07-05T14:41:53;2.20;;;1.60;;
5696;SDS011;2873;50.966;7.210;2022-07-05T14:44:19;1.83;;;1.63;;
5696;SDS011;2873;50.966;7.210;2022-07-05T14:46:45;1.63;;;1.52;;
5696;SDS011;2873;50.966;7.210;2022-07-05T14:49:10;1.98;;;1.45;;
5696;SDS011;2873;50.966;7.210;2022-07-05T14:51:36;2.42;;;1.55;;
5696;SDS011;2873;50.966;7.210;2022-07-05T14:54:02;6.40;;;1.80;;
5696;SDS011;2873;50.966;7.210;2022-07-05T14:56:28;2.45;;;1.63;;
5696;SDS011;2873;50.966;7.210;2022-07-05T14:58:53;3.10;;;1.50;;
5696;SDS011;2873;50.966;7.210;2022-07-05T15:01:19;2.20;;;1.60;;
5696;SDS011;2873;50.966;7.210;2022-07-05T15:03:45;2.70;;;1.57;;
5696;SDS011;2873;50.966;7.210;2022-07-05T15:06:10;5.00;;;1.70;;
5696;SDS011;2873;50.966;7.210;2022-07-05T15:08:36;1.80;;;1.70;;
5696;SDS011;2873;50.966;7.210;2022-07-05T15:11:02;2.22;;;1.60;;
5696;SDS011;2873;50.966;7.210;2022-07-05T15:13:29;2.20;;;1.70;;
5696;SDS011;2873;50.966;7.210;2022-07-05T15:15:55;2.20;;;1.80;;
5696;SDS011;2873;50.966;7.210;2022-07-05T15:18:22;4.07;;;1.70;;
5696;SDS011;2873;50.966;7.210;2022-07-05T15:20:48;2.50;;;1.70;;
5696;SDS011;2873;50.966;7.210;2022-07-05T15:23:16;2.20;;;1.60;;
5696;SDS011;2873;50.966;7.210;2022-07-05T15:25:42;1.80;;;1.70;;
5696;SDS011;2873;50.966;7.210;2022-07-05T15:28:07;3.60;;;1.55;;
5696;SDS011;2873;50.966;7.210;2022-07-05T15:30:35;4.60;;;1.73;;
5696;SDS011;2873;50.966;7.210;2022-07-05T15:33:02;2.15;;;1.50;;
5696;SDS011;2873;50.966;7.210;2022-07-05T15:35:28;1.85;;;1.75;;
5696;SDS011;2873;50.966;7.210;2022-07-05T15:37:54;1.98;;;1.80;;
5696;SDS011;2873;50.966;7.210;2022-07-05T15:40:19;2.70;;;1.90;;
5696;SDS011;2873;50.966;7.210;2022-07-05T15:42:45;4.07;;;1.80;;
5696;SDS011;2873;50.966;7.210;2022-07-05T15:45:11;2.10;;;1.80;;
5696;SDS011;2873;50.966;7.210;2022-07-05T15:47:37;3.20;;;1.70;;
5696;SDS011;2873;50.966;7.210;2022-07-05T15:50:05;3.15;;;1.77;;
5696;SDS011;2873;50.966;7.210;2022-07-05T15:52:31;1.85;;;1.75;;